sensor_id;sensor_type;location;lat;lon;timestamp;pressure;altitude;pressure_sealevel;temperature;humidity
47985;BME280;33753;52.912;-7.342;2023-03-11T00:01:51;99468.69;;;0.34;100.00
47985;BME280;33753;52.912;-7.342;2023-03-11T00:04:20;99471.66;;;0.41;100.00
47985;BME280;33753;52.912;-7.342;2023-03-11T00:06:50;99470.56;;;0.43;100.00
47985;BME280;33753;52.912;-7.342;2023-03-11T00:09:18;99478.56;;;0.43;100.00
47985;BME280;33753;52.912;-7.342;2023-03-11T00:11:46;99476.03;;;0.42;100.00
47985;BME280;33753;52.912;-7.342;2023-03-11T00:14:15;99482.78;;;0.56;100.00
47985;BME280;33753;52.912;-7.342;2023-03-11T00:16:44;99475.53;;;0.58;100.00
47985;BME280;33753;52.912;-7.342;2023-03-11T00:19:12;99481.44;;;0.61;100.00
47985;BME280;33753;52.912;-7.342;2023-03-11T00:21:41;99475.16;;;0.62;100.00
47985;BME280;33753;52.912;-7.342;2023-03-11T00:24:11;99469.25;;;0.59;100.00
47985;BME280;33753;52.912;-7.342;2023-03-11T00:26:39;99472.94;;;0.67;100.00
47985;BME280;33753;52.912;-7.342;2023-03-11T00:29:08;99472.06;;;0.67;100.00
47985;BME280;33753;52.912;-7.342;2023-03-11T00:31:37;99474.50;;;0.70;100.00
47985;BME280;33753;52.912;-7.342;2023-03-11T00:34:06;99464.69;;;0.71;100.00
47985;BME280;33753;52.912;-7.342;2023-03-11T00:36:35;99450.66;;;0.68;100.00
47985;BME280;33753;52.912;-7.342;2023-03-11T00:39:04;99451.25;;;0.72;100.00
47985;BME280;33753;52.912;-7.342;2023-03-11T00:41:35;99457.41;;;0.73;100.00
47985;BME280;33753;52.912;-7.342;2023-03-11T00:44:05;99456.28;;;0.75;100.00
47985;BME280;33753;52.912;-7.342;2023-03-11T00:46:33;99451.94;;;0.74;100.00
47985;BME280;33753;52.912;-7.342;2023-03-11T00:49:02;99445.38;;;0.78;100.00
47985;BME280;33753;52.912;-7.342;2023-03-11T00:51:30;99432.78;;;0.80;100.00
47985;BME280;33753;52.912;-7.342;2023-03-11T00:54:00;99438.13;;;0.80;100.00
47985;BME280;33753;52.912;-7.342;2023-03-11T00:56:29;99437.00;;;0.83;100.00
47985;BME280;33753;52.912;-7.342;2023-03-11T00:58:59;99434.91;;;0.86;100.00
47985;BME280;33753;52.912;-7.342;2023-03-11T01:01:28;99422.69;;;0.84;100.00
47985;BME280;33753;52.912;-7.342;2023-03-11T01:03:57;99427.50;;;0.90;100.00
47985;BME280;33753;52.912;-7.342;2023-03-11T01:06:25;99426.38;;;0.93;100.00
47985;BME280;33753;52.912;-7.342;2023-03-11T01:09:10;99430.59;;;0.95;100.00
47985;BME280;33753;52.912;-7.342;2023-03-11T01:11:39;99425.84;;;0.99;100.00
47985;BME280;33753;52.912;-7.342;2023-03-11T01:14:09;99432.97;;;0.98;100.00
47985;BME280;33753;52.912;-7.342;2023-03-11T01:16:38;99432.59;;;1.03;100.00
47985;BME280;33753;52.912;-7.342;2023-03-11T01:19:07;99433.97;;;1.07;100.00
47985;BME280;33753;52.912;-7.342;2023-03-11T01:21:36;99432.03;;;1.09;100.00
47985;BME280;33753;52.912;-7.342;2023-03-11T01:24:06;99436.94;;;1.14;100.00
47985;BME280;33753;52.912;-7.342;2023-03-11T01:26:34;99439.47;;;1.15;100.00
47985;BME280;33753;52.912;-7.342;2023-03-11T01:29:03;99439.47;;;1.15;100.00
47985;BME280;33753;52.912;-7.342;2023-03-11T01:31:33;99438.38;;;1.18;100.00
47985;BME280;33753;52.912;-7.342;2023-03-11T01:34:02;99439.91;;;1.20;100.00
47985;BME280;33753;52.912;-7.342;2023-03-11T01:36:30;99443.00;;;1.26;100.00
47985;BME280;33753;52.912;-7.342;2023-03-11T01:38:59;99448.06;;;1.29;100.00
47985;BME280;33753;52.912;-7.342;2023-03-11T01:41:28;99458.72;;;1.29;100.00
47985;BME280;33753;52.912;-7.342;2023-03-11T01:43:59;99465.31;;;1.25;100.00
47985;BME280;33753;52.912;-7.342;2023-03-11T01:46:32;99468.00;;;1.34;100.00
47985;BME280;33753;52.912;-7.342;2023-03-11T01:49:10;99471.91;;;1.30;100.00
47985;BME280;33753;52.912;-7.342;2023-03-11T01:51:41;99464.63;;;1.32;100.00
47985;BME280;33753;52.912;-7.342;2023-03-11T01:54:16;99460.41;;;1.30;100.00
47985;BME280;33753;52.912;-7.342;2023-03-11T01:56:45;99464.06;;;1.38;100.00
47985;BME280;33753;52.912;-7.342;2023-03-11T01:59:17;99461.28;;;1.40;100.00
47985;BME280;33753;52.912;-7.342;2023-03-11T02:01:51;99464.78;;;1.41;100.00
47985;BME280;33753;52.912;-7.342;2023-03-11T02:04:22;99466.34;;;1.43;100.00
47985;BME280;33753;52.912;-7.342;2023-03-11T02:06:52;99457.63;;;1.41;100.00
47985;BME280;33753;52.912;-7.342;2023-03-11T02:09:21;99448.78;;;1.41;100.00
47985;BME280;33753;52.912;-7.342;2023-03-11T02:11:53;99442.88;;;1.37;100.00
47985;BME280;33753;52.912;-7.342;2023-03-11T02:14:24;99433.78;;;1.40;100.00
47985;BME280;33753;52.912;-7.342;2023-03-11T02:16:54;99444.28;;;1.41;100.00
47985;BME280;33753;52.912;-7.342;2023-03-11T02:19:31;99443.31;;;1.42;100.00
47985;BME280;33753;52.912;-7.342;2023-03-11T02:22:02;99432.50;;;1.34;100.00
47985;BME280;33753;52.912;-7.342;2023-03-11T02:24:39;99414.44;;;1.37;100.00
47985;BME280;33753;52.912;-7.342;2023-03-11T02:27:15;99393.38;;;1.44;100.00
47985;BME280;33753;52.912;-7.342;2023-03-11T02:29:47;99385.38;;;1.44;100.00
47985;BME280;33753;52.912;-7.342;2023-03-11T02:32:18;99393.38;;;1.44;100.00
47985;BME280;33753;52.912;-7.342;2023-03-11T02:34:48;99378.13;;;1.46;100.00
47985;BME280;33753;52.912;-7.342;2023-03-11T02:37:17;99379.91;;;1.46;100.00
47985;BME280;33753;52.912;-7.342;2023-03-11T02:39:53;99394.41;;;1.53;100.00
47985;BME280;33753;52.912;-7.342;2023-03-11T02:42:25;99405.75;;;1.55;100.00
47985;BME280;33753;52.912;-7.342;2023-03-11T02:44:58;99415.28;;;1.58;100.00
47985;BME280;33753;52.912;-7.342;2023-03-11T02:47:29;99416.25;;;1.57;100.00
47985;BME280;33753;52.912;-7.342;2023-03-11T02:49:58;99414.56;;;1.55;100.00
47985;BME280;33753;52.912;-7.342;2023-03-11T02:52:27;99431.13;;;1.49;100.00
47985;BME280;33753;52.912;-7.342;2023-03-11T02:54:56;99433.50;;;1.52;100.00
47985;BME280;33753;52.912;-7.342;2023-03-11T02:57:26;99433.78;;;1.49;100.00
47985;BME280;33753;52.912;-7.342;2023-03-11T02:59:55;99428.75;;;1.46;100.00
47985;BME280;33753;52.912;-7.342;2023-03-11T03:02:26;99422.69;;;1.44;100.00
47985;BME280;33753;52.912;-7.342;2023-03-11T03:04:54;99408.97;;;1.39;100.00
47985;BME280;33753;52.912;-7.342;2023-03-11T03:07:23;99418.22;;;1.35;100.00
47985;BME280;33753;52.912;-7.342;2023-03-11T03:09:53;99411.34;;;1.32;100.00
47985;BME280;33753;52.912;-7.342;2023-03-11T03:12:23;99405.44;;;1.29;100.00
47985;BME280;33753;52.912;-7.342;2023-03-11T03:14:52;99399.00;;;1.22;100.00
47985;BME280;33753;52.912;-7.342;2023-03-11T03:17:21;99400.94;;;1.19;100.00
47985;BME280;33753;52.912;-7.342;2023-03-11T03:19:50;99398.84;;;1.13;100.00
47985;BME280;33753;52.912;-7.342;2023-03-11T03:22:18;99390.84;;;1.13;100.00
47985;BME280;33753;52.912;-7.342;2023-03-11T03:24:47;99390.53;;;1.07;100.00
47985;BME280;33753;52.912;-7.342;2023-03-11T03:27:16;99385.22;;;1.07;100.00
47985;BME280;33753;52.912;-7.342;2023-03-11T03:29:44;99384.38;;;1.06;100.00
47985;BME280;33753;52.912;-7.342;2023-03-11T03:32:14;99381.00;;;1.04;100.00
47985;BME280;33753;52.912;-7.342;2023-03-11T03:34:43;99381.00;;;1.04;100.00
47985;BME280;33753;52.912;-7.342;2023-03-11T03:37:11;99390.00;;;1.03;100.00
47985;BME280;33753;52.912;-7.342;2023-03-11T03:39:40;99385.63;;;1.02;100.00
47985;BME280;33753;52.912;-7.342;2023-03-11T03:42:10;99382.97;;;1.02;100.00
47985;BME280;33753;52.912;-7.342;2023-03-11T03:44:40;99385.91;;;0.99;100.00
47985;BME280;33753;52.912;-7.342;2023-03-11T03:47:09;99385.78;;;1.00;100.00
47985;BME280;33753;52.912;-7.342;2023-03-11T03:49:39;99377.91;;;0.99;100.00
47985;BME280;33753;52.912;-7.342;2023-03-11T03:52:08;99373.28;;;1.01;100.00
47985;BME280;33753;52.912;-7.342;2023-03-11T03:54:38;99366.41;;;0.98;100.00
47985;BME280;33753;52.912;-7.342;2023-03-11T03:57:06;99370.91;;;0.98;100.00
47985;BME280;33753;52.912;-7.342;2023-03-11T03:59:44;99374.25;;;1.00;100.00
47985;BME280;33753;52.912;-7.342;2023-03-11T04:02:12;99364.59;;;0.99;100.00
47985;BME280;33753;52.912;-7.342;2023-03-11T04:04:43;99370.06;;;0.97;100.00
47985;BME280;33753;52.912;-7.342;2023-03-11T04:07:12;99374.53;;;0.97;100.00
47985;BME280;33753;52.912;-7.342;2023-03-11T04:09:41;99364.88;;;0.96;100.00
47985;BME280;33753;52.912;-7.342;2023-03-11T04:12:13;99361.94;;;0.99;100.00
47985;BME280;33753;52.912;-7.342;2023-03-11T04:14:44;99367.28;;;0.99;100.00
47985;BME280;33753;52.912;-7.342;2023-03-11T04:17:14;99366.41;;;0.98;100.00
47985;BME280;33753;52.912;-7.342;2023-03-11T04:19:45;99364.59;;;0.99;100.00
47985;BME280;33753;52.912;-7.342;2023-03-11T04:22:14;99361.09;;;0.98;100.00
47985;BME280;33753;52.912;-7.342;2023-03-11T04:24:43;99366.53;;;0.97;100.00
47985;BME280;33753;52.912;-7.342;2023-03-11T04:27:11;99367.56;;;0.96;100.00
47985;BME280;33753;52.912;-7.342;2023-03-11T04:29:40;99368.38;;;0.96;100.00
47985;BME280;33753;52.912;-7.342;2023-03-11T04:32:09;99365.00;;;0.94;100.00
47985;BME280;33753;52.912;-7.342;2023-03-11T04:34:38;99368.53;;;0.95;100.00
47985;BME280;33753;52.912;-7.342;2023-03-11T04:37:10;99361.22;;;0.97;100.00
47985;BME280;33753;52.912;-7.342;2023-03-11T04:39:38;99359.28;;;0.99;100.00
47985;BME280;33753;52.912;-7.342;2023-03-11T04:42:07;99342.31;;;1.00;100.00
47985;BME280;33753;52.912;-7.342;2023-03-11T04:44:37;99347.38;;;1.03;100.00
47985;BME280;33753;52.912;-7.342;2023-03-11T04:47:05;99339.25;;;1.05;100.00
47985;BME280;33753;52.912;-7.342;2023-03-11T04:49:34;99344.72;;;1.03;100.00
47985;BME280;33753;52.912;-7.342;2023-03-11T04:52:03;99341.91;;;1.05;100.00
47985;BME280;33753;52.912;-7.342;2023-03-11T04:54:33;99335.88;;;1.02;100.00
47985;BME280;33753;52.912;-7.342;2023-03-11T04:57:02;99338.09;;;1.07;100.00
47985;BME280;33753;52.912;-7.342;2023-03-11T04:59:31;99343.31;;;1.09;100.00
47985;BME280;33753;52.912;-7.342;2023-03-11T05:01:59;99346.81;;;1.09;100.00
47985;BME280;33753;52.912;-7.342;2023-03-11T05:04:30;99348.75;;;1.07;100.00
47985;BME280;33753;52.912;-7.342;2023-03-11T05:06:59;99350.59;;;1.07;100.00
47985;BME280;33753;52.912;-7.342;2023-03-11T05:09:29;99350.44;;;1.08;100.00
47985;BME280;33753;52.912;-7.342;2023-03-11T05:11:59;99344.16;;;1.09;100.00
47985;BME280;33753;52.912;-7.342;2023-03-11T05:14:29;99343.19;;;1.10;100.00
47985;BME280;33753;52.912;-7.342;2023-03-11T05:16:57;99344.16;;;1.09;100.00
47985;BME280;33753;52.912;-7.342;2023-03-11T05:19:27;99343.19;;;1.10;100.00
47985;BME280;33753;52.912;-7.342;2023-03-11T05:22:07;99339.81;;;1.08;100.00
47985;BME280;33753;52.912;-7.342;2023-03-11T05:24:36;99343.31;;;1.09;100.00
47985;BME280;33753;52.912;-7.342;2023-03-11T05:27:06;99343.19;;;1.10;100.00
47985;BME280;33753;52.912;-7.342;2023-03-11T05:29:36;99339.53;;;1.11;100.00
47985;BME280;33753;52.912;-7.342;2023-03-11T05:32:08;99331.25;;;1.14;100.00
47985;BME280;33753;52.912;-7.342;2023-03-11T05:34:38;99326.94;;;1.13;100.00
47985;BME280;33753;52.912;-7.342;2023-03-11T05:37:07;99333.09;;;1.14;100.00
47985;BME280;33753;52.912;-7.342;2023-03-11T05:39:36;99335.06;;;1.22;100.00
47985;BME280;33753;52.912;-7.342;2023-03-11T05:42:07;99341.09;;;1.24;100.00
47985;BME280;33753;52.912;-7.342;2023-03-11T05:44:35;99337.31;;;1.26;100.00
47985;BME280;33753;52.912;-7.342;2023-03-11T05:47:04;99333.91;;;1.24;100.00
47985;BME280;33753;52.912;-7.342;2023-03-11T05:49:34;99328.34;;;1.27;100.00
47985;BME280;33753;52.912;-7.342;2023-03-11T05:52:03;99321.88;;;1.30;100.00
47985;BME280;33753;52.912;-7.342;2023-03-11T05:54:32;99313.19;;;1.28;100.00
47985;BME280;33753;52.912;-7.342;2023-03-11T05:57:01;99303.22;;;1.30;100.00
47985;BME280;33753;52.912;-7.342;2023-03-11T05:59:32;99299.44;;;1.32;100.00
47985;BME280;33753;52.912;-7.342;2023-03-11T06:02:03;99282.63;;;1.32;100.00
47985;BME280;33753;52.912;-7.342;2023-03-11T06:04:32;99273.91;;;1.30;100.00
47985;BME280;33753;52.912;-7.342;2023-03-11T06:07:02;99278.28;;;1.31;100.00
47985;BME280;33753;52.912;-7.342;2023-03-11T06:09:35;99278.13;;;1.32;100.00
47985;BME280;33753;52.912;-7.342;2023-03-11T06:12:08;99285.97;;;1.34;100.00
47985;BME280;33753;52.912;-7.342;2023-03-11T06:15:10;99292.84;;;1.36;100.00
47985;BME280;33753;52.912;-7.342;2023-03-11T06:17:40;99280.66;;;1.34;100.00
47985;BME280;33753;52.912;-7.342;2023-03-11T06:20:10;99291.88;;;1.37;100.00
47985;BME280;33753;52.912;-7.342;2023-03-11T06:22:40;99303.38;;;1.38;100.00
47985;BME280;33753;52.912;-7.342;2023-03-11T06:25:09;99307.00;;;1.37;100.00
47985;BME280;33753;52.912;-7.342;2023-03-11T06:27:40;99306.75;;;1.40;100.00
47985;BME280;33753;52.912;-7.342;2023-03-11T06:30:13;99314.75;;;1.40;100.00
47985;BME280;33753;52.912;-7.342;2023-03-11T06:32:51;99309.28;;;1.42;100.00
47985;BME280;33753;52.912;-7.342;2023-03-11T06:35:21;99294.09;;;1.42;100.00
47985;BME280;33753;52.912;-7.342;2023-03-11T06:37:49;99286.13;;;1.42;100.00
47985;BME280;33753;52.912;-7.342;2023-03-11T06:40:18;99274.34;;;1.45;100.00
47985;BME280;33753;52.912;-7.342;2023-03-11T06:42:46;99276.88;;;1.46;100.00
47985;BME280;33753;52.912;-7.342;2023-03-11T06:45:18;99267.19;;;1.45;100.00
47985;BME280;33753;52.912;-7.342;2023-03-11T06:47:48;99272.22;;;1.48;100.00
47985;BME280;33753;52.912;-7.342;2023-03-11T06:50:16;99265.22;;;1.47;100.00
47985;BME280;33753;52.912;-7.342;2023-03-11T06:52:45;99275.59;;;1.50;100.00
47985;BME280;33753;52.912;-7.342;2023-03-11T06:55:13;99270.94;;;1.52;100.00
47985;BME280;33753;52.912;-7.342;2023-03-11T06:57:42;99278.94;;;1.52;100.00
47985;BME280;33753;52.912;-7.342;2023-03-11T07:00:13;99283.00;;;1.57;100.00
47985;BME280;33753;52.912;-7.342;2023-03-11T07:02:48;99276.69;;;1.58;100.00
47985;BME280;33753;52.912;-7.342;2023-03-11T07:05:17;99267.03;;;1.57;100.00
47985;BME280;33753;52.912;-7.342;2023-03-11T07:07:47;99270.81;;;1.54;100.00
47985;BME280;33753;52.912;-7.342;2023-03-11T07:10:15;99264.22;;;1.58;100.00
47985;BME280;33753;52.912;-7.342;2023-03-11T07:12:44;99258.19;;;1.56;100.00
47985;BME280;33753;52.912;-7.342;2023-03-11T07:15:13;99248.06;;;1.60;100.00
47985;BME280;33753;52.912;-7.342;2023-03-11T07:17:42;99248.06;;;1.60;100.00
47985;BME280;33753;52.912;-7.342;2023-03-11T07:20:12;99247.38;;;1.58;100.00
47985;BME280;33753;52.912;-7.342;2023-03-11T07:22:41;99239.38;;;1.58;100.00
47985;BME280;33753;52.912;-7.342;2023-03-11T07:25:09;99241.09;;;1.49;100.00
47985;BME280;33753;52.912;-7.342;2023-03-11T07:27:38;99225.50;;;1.54;100.00
47985;BME280;33753;52.912;-7.342;2023-03-11T07:30:08;99230.97;;;1.52;100.00
47985;BME280;33753;52.912;-7.342;2023-03-11T07:32:36;99225.78;;;1.61;100.00
47985;BME280;33753;52.912;-7.342;2023-03-11T07:35:06;99210.75;;;1.60;100.00
47985;BME280;33753;52.912;-7.342;2023-03-11T07:37:36;99203.19;;;1.65;100.00
47985;BME280;33753;52.912;-7.342;2023-03-11T07:40:06;99201.19;;;1.67;100.00
47985;BME280;33753;52.912;-7.342;2023-03-11T07:42:35;99202.88;;;1.68;100.00
47985;BME280;33753;52.912;-7.342;2023-03-11T07:45:04;99195.88;;;1.67;100.00
47985;BME280;33753;52.912;-7.342;2023-03-11T07:47:33;99200.63;;;1.73;100.00
47985;BME280;33753;52.912;-7.342;2023-03-11T07:50:01;99195.00;;;1.76;100.00
47985;BME280;33753;52.912;-7.342;2023-03-11T07:52:30;99201.72;;;1.80;100.00
47985;BME280;33753;52.912;-7.342;2023-03-11T07:55:00;99199.06;;;1.80;100.00
47985;BME280;33753;52.912;-7.342;2023-03-11T07:57:29;99193.44;;;1.83;100.00
47985;BME280;33753;52.912;-7.342;2023-03-11T07:59:57;99195.38;;;1.81;100.00
47985;BME280;33753;52.912;-7.342;2023-03-11T08:02:26;99204.22;;;1.92;100.00
47985;BME280;33753;52.912;-7.342;2023-03-11T08:04:55;99198.56;;;1.95;100.00
47985;BME280;33753;52.912;-7.342;2023-03-11T08:07:23;99205.56;;;1.96;100.00
47985;BME280;33753;52.912;-7.342;2023-03-11T08:09:51;99200.66;;;2.01;100.00
47985;BME280;33753;52.912;-7.342;2023-03-11T08:12:21;99197.53;;;2.05;100.00
47985;BME280;33753;52.912;-7.342;2023-03-11T08:14:49;99203.56;;;2.07;100.00
47985;BME280;33753;52.912;-7.342;2023-03-11T08:17:18;99199.78;;;2.10;100.00
47985;BME280;33753;52.912;-7.342;2023-03-11T08:19:47;99194.28;;;2.12;100.00
47985;BME280;33753;52.912;-7.342;2023-03-11T08:22:16;99182.19;;;2.17;100.00
47985;BME280;33753;52.912;-7.342;2023-03-11T08:24:44;99187.75;;;2.24;100.00
47985;BME280;33753;52.912;-7.342;2023-03-11T08:27:13;99191.94;;;2.27;100.00
47985;BME280;33753;52.912;-7.342;2023-03-11T08:29:42;99191.34;;;2.33;100.00
47985;BME280;33753;52.912;-7.342;2023-03-11T08:32:11;99193.28;;;2.40;100.00
47985;BME280;33753;52.912;-7.342;2023-03-11T08:34:39;99180.75;;;2.41;100.00
47985;BME280;33753;52.912;-7.342;2023-03-11T08:37:08;99190.16;;;2.45;100.00
47985;BME280;33753;52.912;-7.342;2023-03-11T08:39:36;99191.22;;;2.52;100.00
47985;BME280;33753;52.912;-7.342;2023-03-11T08:42:05;99181.81;;;2.48;100.00
47985;BME280;33753;52.912;-7.342;2023-03-11T08:44:33;99170.41;;;2.56;100.00
47985;BME280;33753;52.912;-7.342;2023-03-11T08:47:05;99176.13;;;2.61;100.00
47985;BME280;33753;52.912;-7.342;2023-03-11T08:49:34;99169.25;;;2.58;100.00
47985;BME280;33753;52.912;-7.342;2023-03-11T08:52:03;99173.44;;;2.61;100.00
47985;BME280;33753;52.912;-7.342;2023-03-11T08:54:32;99170.31;;;2.66;100.00
47985;BME280;33753;52.912;-7.342;2023-03-11T08:57:00;99157.66;;;2.68;100.00
47985;BME280;33753;52.912;-7.342;2023-03-11T08:59:30;99151.50;;;2.67;100.00
47985;BME280;33753;52.912;-7.342;2023-03-11T09:01:59;99152.03;;;2.71;100.00
47985;BME280;33753;52.912;-7.342;2023-03-11T09:04:29;99155.34;;;2.73;100.00
47985;BME280;33753;52.912;-7.342;2023-03-11T09:06:57;99144.00;;;2.71;100.00
47985;BME280;33753;52.912;-7.342;2023-03-11T09:09:26;99135.69;;;2.74;100.00
47985;BME280;33753;52.912;-7.342;2023-03-11T09:11:55;99120.53;;;2.74;100.00
47985;BME280;33753;52.912;-7.342;2023-03-11T09:14:24;99121.75;;;2.80;100.00
47985;BME280;33753;52.912;-7.342;2023-03-11T09:16:55;99124.09;;;2.83;100.00
47985;BME280;33753;52.912;-7.342;2023-03-11T09:19:24;99111.78;;;2.90;100.00
47985;BME280;33753;52.912;-7.342;2023-03-11T09:21:53;99105.25;;;2.85;100.00
47985;BME280;33753;52.912;-7.342;2023-03-11T09:24:22;99105.81;;;2.97;100.00
47985;BME280;33753;52.912;-7.342;2023-03-11T09:26:50;99097.50;;;3.00;100.00
47985;BME280;33753;52.912;-7.342;2023-03-11T09:29:19;99095.19;;;3.05;100.00
47985;BME280;33753;52.912;-7.342;2023-03-11T09:31:48;99094.56;;;3.11;100.00
47985;BME280;33753;52.912;-7.342;2023-03-11T09:34:18;99092.78;;;3.20;100.00
47985;BME280;33753;52.912;-7.342;2023-03-11T09:36:48;99099.16;;;3.27;100.00
47985;BME280;33753;52.912;-7.342;2023-03-11T09:39:18;99096.88;;;3.32;100.00
47985;BME280;33753;52.912;-7.342;2023-03-11T09:41:52;99099.69;;;3.31;100.00
47985;BME280;33753;52.912;-7.342;2023-03-11T09:44:29;99109.91;;;3.35;100.00
47985;BME280;33753;52.912;-7.342;2023-03-11T09:47:16;99109.41;;;3.32;100.00
47985;BME280;33753;52.912;-7.342;2023-03-11T09:50:18;99092.22;;;3.42;100.00
47985;BME280;33753;52.912;-7.342;2023-03-11T09:52:57;99096.44;;;3.45;100.00
47985;BME280;33753;52.912;-7.342;2023-03-11T09:55:39;99102.50;;;3.55;100.00
47985;BME280;33753;52.912;-7.342;2023-03-11T09:58:12;99078.78;;;3.60;100.00
47985;BME280;33753;52.912;-7.342;2023-03-11T10:00:43;99078.47;;;3.63;100.00
47985;BME280;33753;52.912;-7.342;2023-03-11T10:03:20;99072.78;;;3.67;100.00
47985;BME280;33753;52.912;-7.342;2023-03-11T10:05:56;99071.97;;;3.66;100.00
47985;BME280;33753;52.912;-7.342;2023-03-11T10:08:30;99058.03;;;3.54;100.00
47985;BME280;33753;52.912;-7.342;2023-03-11T10:11:10;99048.19;;;3.55;100.00
47985;BME280;33753;52.912;-7.342;2023-03-11T10:13:43;99049.34;;;3.52;100.00
47985;BME280;33753;52.912;-7.342;2023-03-11T10:16:18;99053.66;;;3.45;100.00
47985;BME280;33753;52.912;-7.342;2023-03-11T10:18:54;99055.84;;;3.50;100.00
47985;BME280;33753;52.912;-7.342;2023-03-11T10:21:37;99059.50;;;3.49;100.00
47985;BME280;33753;52.912;-7.342;2023-03-11T10:24:18;99050.34;;;3.51;100.00
47985;BME280;33753;52.912;-7.342;2023-03-11T10:27:02;99050.69;;;3.56;100.00
47985;BME280;33753;52.912;-7.342;2023-03-11T10:29:43;99050.38;;;3.59;100.00
47985;BME280;33753;52.912;-7.342;2023-03-11T10:32:16;99045.34;;;3.56;100.00
47985;BME280;33753;52.912;-7.342;2023-03-11T10:34:51;99048.69;;;3.50;100.00
47985;BME280;33753;52.912;-7.342;2023-03-11T10:37:24;99044.53;;;3.56;100.00
47985;BME280;33753;52.912;-7.342;2023-03-11T10:40:18;99050.38;;;3.59;100.00
47985;BME280;33753;52.912;-7.342;2023-03-11T10:42:53;99052.38;;;3.66;100.00
47985;BME280;33753;52.912;-7.342;2023-03-11T10:45:24;99050.25;;;3.69;100.00
47985;BME280;33753;52.912;-7.342;2023-03-11T10:47:55;99048.72;;;3.67;100.00
47985;BME280;33753;52.912;-7.342;2023-03-11T10:50:23;99046.25;;;3.73;100.00
47985;BME280;33753;52.912;-7.342;2023-03-11T10:53:07;99050.09;;;3.71;100.00
47985;BME280;33753;52.912;-7.342;2023-03-11T10:55:45;99058.13;;;3.79;100.00
47985;BME280;33753;52.912;-7.342;2023-03-11T10:58:17;99050.13;;;3.79;100.00
47985;BME280;33753;52.912;-7.342;2023-03-11T11:00:58;99052.50;;;3.90;100.00
47985;BME280;33753;52.912;-7.342;2023-03-11T11:03:27;99052.16;;;3.93;100.00
47985;BME280;33753;52.912;-7.342;2023-03-11T11:05:59;99056.34;;;3.96;100.00
47985;BME280;33753;52.912;-7.342;2023-03-11T11:08:28;99038.47;;;4.05;100.00
47985;BME280;33753;52.912;-7.342;2023-03-11T11:10:58;99034.94;;;4.04;100.00
47985;BME280;33753;52.912;-7.342;2023-03-11T11:13:29;99039.81;;;4.09;100.00
47985;BME280;33753;52.912;-7.342;2023-03-11T11:16:03;99032.28;;;4.21;100.00
47985;BME280;33753;52.912;-7.342;2023-03-11T11:18:35;99031.13;;;4.23;100.00
47985;BME280;33753;52.912;-7.342;2023-03-11T11:21:06;99033.47;;;4.26;100.00
47985;BME280;33753;52.912;-7.342;2023-03-11T11:23:38;99019.75;;;4.29;100.00
47985;BME280;33753;52.912;-7.342;2023-03-11T11:26:16;99016.75;;;4.41;100.00
47985;BME280;33753;52.912;-7.342;2023-03-11T11:28:46;99009.06;;;4.46;100.00
47985;BME280;33753;52.912;-7.342;2023-03-11T11:31:35;99000.69;;;4.49;100.00
47985;BME280;33753;52.912;-7.342;2023-03-11T11:34:24;98996.63;;;4.61;100.00
47985;BME280;33753;52.912;-7.342;2023-03-11T11:36:55;98995.28;;;4.65;100.00
47985;BME280;33753;52.912;-7.342;2023-03-11T11:39:25;98996.97;;;4.66;100.00
47985;BME280;33753;52.912;-7.342;2023-03-11T11:41:55;98988.94;;;4.75;100.00
47985;BME280;33753;52.912;-7.342;2023-03-11T11:44:31;98990.91;;;4.81;100.00
47985;BME280;33753;52.912;-7.342;2023-03-11T11:47:04;98989.25;;;4.80;100.00
47985;BME280;33753;52.912;-7.342;2023-03-11T11:49:36;98971.47;;;4.95;100.00
47985;BME280;33753;52.912;-7.342;2023-03-11T11:52:13;98974.47;;;5.00;100.00
47985;BME280;33753;52.912;-7.342;2023-03-11T11:54:45;98965.19;;;5.11;100.00
47985;BME280;33753;52.912;-7.342;2023-03-11T11:57:19;98980.91;;;5.23;100.00
47985;BME280;33753;52.912;-7.342;2023-03-11T11:59:51;98983.75;;;5.29;100.00
47985;BME280;33753;52.912;-7.342;2023-03-11T12:02:33;98976.16;;;5.33;100.00
47985;BME280;33753;52.912;-7.342;2023-03-11T12:05:07;98978.19;;;5.39;100.00
47985;BME280;33753;52.912;-7.342;2023-03-11T12:07:48;98981.69;;;5.40;100.00
47985;BME280;33753;52.912;-7.342;2023-03-11T12:10:26;98972.25;;;5.52;100.00
47985;BME280;33753;52.912;-7.342;2023-03-11T12:13:19;98956.41;;;5.65;100.00
47985;BME280;33753;52.912;-7.342;2023-03-11T12:15:56;98968.59;;;5.76;100.00
47985;BME280;33753;52.912;-7.342;2023-03-11T12:18:30;98960.47;;;5.84;100.00
47985;BME280;33753;52.912;-7.342;2023-03-11T12:21:07;98953.91;;;5.87;100.00
47985;BME280;33753;52.912;-7.342;2023-03-11T12:23:44;98937.16;;;5.85;100.00
47985;BME280;33753;52.912;-7.342;2023-03-11T12:26:21;98942.47;;;5.93;100.00
47985;BME280;33753;52.912;-7.342;2023-03-11T12:28:54;98939.44;;;5.96;100.00
47985;BME280;33753;52.912;-7.342;2023-03-11T12:31:29;98938.94;;;5.93;100.00
47985;BME280;33753;52.912;-7.342;2023-03-11T12:34:02;98939.97;;;5.92;100.00
47985;BME280;33753;52.912;-7.342;2023-03-11T12:36:33;98939.44;;;5.96;100.00
47985;BME280;33753;52.912;-7.342;2023-03-11T12:39:04;98938.47;;;5.89;100.00
47985;BME280;33753;52.912;-7.342;2023-03-11T12:41:35;98931.88;;;6.00;100.00
47985;BME280;33753;52.912;-7.342;2023-03-11T12:44:23;98931.03;;;5.99;100.00
47985;BME280;33753;52.912;-7.342;2023-03-11T12:47:19;98915.53;;;6.10;100.00
47985;BME280;33753;52.912;-7.342;2023-03-11T12:49:49;98917.78;;;6.21;100.00
47985;BME280;33753;52.912;-7.342;2023-03-11T12:52:31;98931.06;;;6.37;100.00
47985;BME280;33753;52.912;-7.342;2023-03-11T12:55:34;98924.59;;;6.47;100.00
47985;BME280;33753;52.912;-7.342;2023-03-11T13:04:37;98922.38;;;6.50;100.00
47985;BME280;33753;52.912;-7.342;2023-03-11T13:07:39;98917.75;;;6.59;100.00
47985;BME280;33753;52.912;-7.342;2023-03-11T13:10:33;98908.56;;;6.68;100.00
47985;BME280;33753;52.912;-7.342;2023-03-11T13:13:31;98895.97;;;6.84;100.00
47985;BME280;33753;52.912;-7.342;2023-03-11T13:16:34;98898.97;;;6.89;100.00
47985;BME280;33753;52.912;-7.342;2023-03-11T13:19:45;98897.56;;;6.93;100.00
47985;BME280;33753;52.912;-7.342;2023-03-11T13:25:36;98891.88;;;7.18;100.00